Time;durP1;ratioP1;P1;durP2;ratioP2;P2;SDS_P1;SDS_P2;PMS_P1;PMS_P2;Temp;Humidity;BMP_temperature;BMP_pressure;BME280_temperature;BME280_humidity;BME280_pressure;Samples;Min_cycle;Max_cycle;Signal;HPM_P1;HPM_P2
2022/06/24 00:03:54;;;;;;;3.42;1.20;;;22.50;97.70;;;;;;10056389;28;20057;-65
2022/06/24 00:08:58;;;;;;;5.20;1.38;;;22.50;97.70;;;;;;10056167;28;20033;-66
2022/06/24 00:13:48;;;;;;;3.63;1.25;;;22.40;98.20;;;;;;10055310;28;20045;-65
2022/06/24 00:18:39;;;;;;;4.80;1.80;;;22.20;98.10;;;;;;10055446;28;20041;-65
2022/06/24 00:23:30;;;;;;;2.95;1.00;;;22.20;98.00;;;;;;10055315;28;20021;-65
2022/06/24 00:28:26;;;;;;;2.75;1.40;;;22.20;98.00;;;;;;10054786;28;20392;-64
2022/06/24 00:33:19;;;;;;;2.90;1.23;;;22.10;98.00;;;;;;10054156;28;20046;-65
2022/06/24 00:38:30;;;;;;;3.03;1.50;;;22.20;98.00;;;;;;10054403;28;20143;-65
2022/06/24 00:43:36;;;;;;;3.40;2.13;;;22.00;98.20;;;;;;10054180;28;20037;-67
2022/06/24 00:48:30;;;;;;;5.32;1.23;;;21.80;98.50;;;;;;10047949;28;20071;-63
2022/06/24 00:53:21;;;;;;;3.83;1.50;;;21.80;98.40;;;;;;10054425;28;20032;-66
2022/06/24 00:58:14;;;;;;;1.63;1.20;;;21.80;98.50;;;;;;10051223;28;20041;-66
2022/06/24 01:03:06;;;;;;;3.03;1.30;;;21.80;98.50;;;;;;10052253;28;20083;-67
2022/06/24 01:07:58;;;;;;;2.40;1.20;;;21.80;98.50;;;;;;10053125;28;20033;-65
2022/06/24 01:12:49;;;;;;;4.13;1.38;;;21.80;98.50;;;;;;10054520;28;20463;-64
2022/06/24 01:17:39;;;;;;;4.45;1.42;;;21.80;98.50;;;;;;10054564;28;20103;-67
2022/06/24 01:22:30;;;;;;;2.58;1.40;;;21.80;98.50;;;;;;10053279;28;20538;-66
2022/06/24 01:27:21;;;;;;;5.40;1.90;;;21.90;98.50;;;;;;10051971;28;20064;-64
2022/06/24 01:32:12;;;;;;;2.10;1.65;;;21.80;98.60;;;;;;10052892;28;20053;-65
2022/06/24 01:37:03;;;;;;;3.40;1.90;;;21.80;98.50;;;;;;10021424;28;20503;-66
2022/06/24 01:41:54;;;;;;;3.20;2.03;;;21.60;98.70;;;;;;10052093;28;20055;-62
2022/06/24 01:46:45;;;;;;;3.35;2.22;;;21.60;98.70;;;;;;10051494;28;20431;-63
2022/06/24 01:51:42;;;;;;;4.80;1.60;;;21.50;98.90;;;;;;10052383;28;20021;-62
2022/06/24 01:56:32;;;;;;;3.47;1.95;;;21.60;98.90;;;;;;10033486;28;20065;-65
2022/06/24 02:01:23;;;;;;;6.55;1.67;;;21.70;98.90;;;;;;10051805;28;20067;-64
2022/06/24 02:06:14;;;;;;;5.25;1.75;;;21.60;98.90;;;;;;10051644;28;20033;-63
2022/06/24 02:16:18;;;;;;;4.32;2.53;;;21.60;98.80;;;;;;10051316;28;20118;-63
2022/06/24 02:21:09;;;;;;;5.45;2.45;;;21.50;99.00;;;;;;10052035;28;20026;-62
2022/06/24 02:26:00;;;;;;;5.07;2.70;;;21.60;99.00;;;;;;10052001;28;20088;-62
2022/06/24 02:30:55;;;;;;;3.85;2.10;;;21.60;99.00;;;;;;10051775;28;20037;-62
2022/06/24 02:35:45;;;;;;;;;;;21.60;99.00;;;;;;10052167;28;20033;-62
2022/06/24 02:40:45;;;;;;;2.58;1.48;;;21.50;99.10;;;;;;10052582;28;20291;-63
2022/06/24 02:45:36;;;;;;;6.80;1.65;;;21.60;99.00;;;;;;10051977;28;20543;-63
2022/06/24 02:50:26;;;;;;;2.40;1.50;;;21.60;99.00;;;;;;10035937;28;20067;-63
2022/06/24 02:55:17;;;;;;;5.72;1.88;;;21.50;99.00;;;;;;10058777;28;20098;-62
2022/06/24 03:00:08;;;;;;;5.60;1.90;;;21.40;99.10;;;;;;10040300;28;20104;-62
2022/06/24 03:04:59;;;;;;;5.22;2.50;;;21.50;98.90;;;;;;10056254;28;20045;-62
2022/06/24 03:09:49;;;;;;;4.35;2.42;;;21.60;99.00;;;;;;10057206;28;20553;-62
2022/06/24 03:14:40;;;;;;;3.60;2.30;;;21.50;99.10;;;;;;10057320;28;20017;-64
2022/06/24 03:19:30;;;;;;;7.72;2.25;;;21.70;99.10;;;;;;10057598;28;20132;-63
2022/06/24 03:24:21;;;;;;;3.22;1.55;;;21.50;99.10;;;;;;10057447;28;20257;-61
2022/06/24 03:29:12;;;;;;;4.88;1.73;;;21.50;99.10;;;;;;10058787;28;20029;-62
2022/06/24 03:34:02;;;;;;;4.43;2.20;;;21.20;99.20;;;;;;10056957;28;20064;-61
2022/06/24 03:38:53;;;;;;;5.22;2.28;;;21.20;99.40;;;;;;10057014;28;20060;-63
2022/06/24 03:43:43;;;;;;;6.43;1.88;;;21.10;99.50;;;;;;10056543;28;20510;-62
2022/06/24 03:48:34;;;;;;;2.53;1.80;;;21.10;99.50;;;;;;10056930;28;20025;-62
2022/06/24 03:53:25;;;;;;;6.13;1.73;;;21.00;99.70;;;;;;10056813;28;20029;-63
2022/06/24 03:58:17;;;;;;;5.03;1.95;;;21.00;99.80;;;;;;10056224;28;20439;-61
2022/06/24 04:03:08;;;;;;;5.25;2.80;;;21.00;99.70;;;;;;10054642;28;20033;-62
2022/06/24 04:07:59;;;;;;;4.00;1.95;;;20.90;99.80;;;;;;10057195;28;20025;-61
2022/06/24 04:12:49;;;;;;;6.80;1.95;;;20.80;99.90;;;;;;10051200;28;20026;-63
2022/06/24 04:17:41;;;;;;;4.55;2.42;;;20.90;99.90;;;;;;10055140;28;20420;-63
2022/06/24 04:22:31;;;;;;;3.65;2.17;;;20.80;99.90;;;;;;10055033;28;20338;-60
2022/06/24 04:27:22;;;;;;;5.05;2.10;;;20.80;99.90;;;;;;10055427;28;20025;-62
2022/06/24 04:32:13;;;;;;;5.63;2.50;;;20.80;99.90;;;;;;10054256;28;20050;-61
2022/06/24 04:37:04;;;;;;;10.32;2.53;;;20.90;99.90;;;;;;10054209;28;20578;-62
2022/06/24 04:41:55;;;;;;;4.60;1.88;;;21.00;99.80;;;;;;10055034;28;20067;-62
2022/06/24 04:46:45;;;;;;;4.63;2.58;;;21.10;99.60;;;;;;10054270;28;20111;-61
2022/06/24 04:51:36;;;;;;;4.60;2.10;;;21.20;99.70;;;;;;10054970;28;20065;-66
2022/06/24 04:56:26;;;;;;;4.57;2.00;;;21.40;99.40;;;;;;10053152;28;20037;-62
2022/06/24 05:01:17;;;;;;;3.67;2.00;;;21.40;99.50;;;;;;10052415;28;20057;-61
2022/06/24 05:06:08;;;;;;;3.03;1.77;;;21.40;99.50;;;;;;10050016;28;20033;-62
2022/06/24 05:10:59;;;;;;;3.63;1.70;;;21.60;99.40;;;;;;10052755;28;20026;-62
2022/06/24 05:15:50;;;;;;;5.72;2.42;;;21.80;99.20;;;;;;10052722;28;20195;-62
2022/06/24 05:20:41;;;;;;;5.60;2.10;;;21.90;99.10;;;;;;10053029;28;20211;-62
2022/06/24 05:25:32;;;;;;;4.53;2.28;;;22.00;99.00;;;;;;10051291;28;20064;-62
2022/06/24 05:30:23;;;;;;;6.88;3.28;;;22.00;99.10;;;;;;10051983;28;20503;-63
2022/06/24 05:35:13;;;;;;;3.90;1.75;;;22.10;99.10;;;;;;10051880;28;20033;-62
2022/06/24 05:40:05;;;;;;;5.25;2.25;;;22.20;99.00;;;;;;10053182;28;20025;-61
2022/06/24 05:44:56;;;;;;;3.75;1.40;;;22.20;99.00;;;;;;10051679;28;20095;-61
2022/06/24 05:49:47;;;;;;;6.82;2.45;;;22.40;98.80;;;;;;10052170;28;20589;-63
2022/06/24 05:59:46;;;;;;;4.90;1.85;;;22.40;98.70;;;;;;10052563;28;20056;-61
2022/06/24 06:04:37;;;;;;;7.63;2.13;;;22.60;98.50;;;;;;10051601;28;20029;-61
2022/06/24 06:09:28;;;;;;;4.75;1.50;;;22.60;98.50;;;;;;10051642;28;20024;-62
2022/06/24 06:14:18;;;;;;;4.05;1.77;;;22.80;98.40;;;;;;10051463;28;20025;-62
2022/06/24 06:19:09;;;;;;;6.28;1.60;;;22.80;98.30;;;;;;10050824;28;20080;-61
2022/06/24 06:23:59;;;;;;;8.65;2.13;;;22.80;98.20;;;;;;10051799;28;20033;-62
2022/06/24 06:28:50;;;;;;;8.75;2.10;;;22.70;98.30;;;;;;10057375;28;20025;-62
2022/06/24 06:33:41;;;;;;;4.93;1.95;;;22.50;98.30;;;;;;10057164;28;20049;-61
2022/06/24 06:38:32;;;;;;;5.28;1.75;;;22.50;98.20;;;;;;10056993;28;20179;-61
2022/06/24 06:43:22;;;;;;;5.18;1.92;;;22.50;98.00;;;;;;10056688;28;20022;-62
2022/06/24 06:48:13;;;;;;;7.63;2.92;;;22.40;98.00;;;;;;10057004;28;20029;-60
2022/06/24 06:53:04;;;;;;;3.35;1.92;;;22.40;98.10;;;;;;10056147;28;20295;-61
2022/06/24 06:57:54;;;;;;;4.07;2.22;;;22.50;98.00;;;;;;10056092;28;20064;-63
2022/06/24 07:02:45;;;;;;;4.10;2.05;;;22.60;98.00;;;;;;10056647;28;20040;-60
2022/06/24 07:07:36;;;;;;;3.60;1.73;;;22.80;97.90;;;;;;10056740;28;20037;-63
2022/06/24 07:12:27;;;;;;;3.35;1.75;;;22.90;97.90;;;;;;10052670;28;20014;-60
2022/06/24 07:17:18;;;;;;;4.55;1.67;;;22.70;98.10;;;;;;10057073;28;20030;-62
2022/06/24 07:22:09;;;;;;;9.88;3.03;;;22.80;98.10;;;;;;10058015;28;20221;-65
2022/06/24 07:27:04;;;;;;;3.92;2.25;;;23.00;97.80;;;;;;10053943;28;20021;-62
2022/06/24 07:31:55;;;;;;;2.72;2.00;;;22.90;98.00;;;;;;10055208;28;20045;-60
2022/06/24 07:36:45;;;;;;;3.28;2.17;;;22.70;98.10;;;;;;10054356;28;20068;-62
2022/06/24 07:41:36;;;;;;;6.72;2.00;;;22.80;97.90;;;;;;10054706;28;20083;-61
2022/06/24 07:46:27;;;;;;;2.80;1.92;;;22.90;97.70;;;;;;10054868;28;20025;-63
2022/06/24 07:51:19;;;;;;;2.28;1.25;;;23.00;97.60;;;;;;10054841;28;20531;-61
2022/06/24 08:01:19;;;;;;;3.92;1.35;;;23.30;97.30;;;;;;10053934;28;20071;-64
2022/06/24 08:06:10;;;;;;;3.70;2.63;;;23.30;97.20;;;;;;10054486;28;20542;-63
2022/06/24 08:11:03;;;;;;;4.72;2.60;;;23.30;97.10;;;;;;10054028;28;20029;-62
2022/06/24 08:15:54;;;;;;;4.15;1.77;;;23.40;96.90;;;;;;10053827;28;20064;-63
2022/06/24 08:20:48;;;;;;;3.78;1.70;;;23.50;96.80;;;;;;10054097;28;20531;-65
2022/06/24 08:25:39;;;;;;;6.60;2.07;;;23.50;96.70;;;;;;10053825;28;20116;-63
2022/06/24 08:30:30;;;;;;;6.07;2.00;;;23.80;96.50;;;;;;10053939;28;20183;-61
2022/06/24 08:35:21;;;;;;;2.92;1.15;;;23.80;96.40;;;;;;10053616;28;20376;-62
2022/06/24 08:40:12;;;;;;;6.53;1.60;;;23.90;96.20;;;;;;10054589;28;20040;-63
2022/06/24 08:45:03;;;;;;;4.47;1.77;;;24.00;96.00;;;;;;10053673;28;20040;-64
2022/06/24 08:50:30;;;;;;;2.92;1.70;;;24.00;95.90;;;;;;10053732;28;20503;-66
2022/06/24 08:55:21;;;;;;;4.28;2.38;;;24.00;95.70;;;;;;10016814;28;20041;-67
2022/06/24 09:00:12;;;;;;;4.95;1.60;;;24.00;95.70;;;;;;10050926;28;20400;-64
2022/06/24 09:05:11;;;;;;;5.13;1.40;;;24.10;95.40;;;;;;10052691;28;20600;-65
2022/06/24 09:10:10;;;;;;;3.90;1.40;;;24.30;95.20;;;;;;10052444;28;20571;-64
2022/06/24 09:15:03;;;;;;;4.53;2.38;;;24.40;95.20;;;;;;10051854;28;20492;-66
2022/06/24 09:20:03;;;;;;;2.77;1.23;;;24.60;95.00;;;;;;10052222;28;20248;-64
2022/06/24 09:24:54;;;;;;;2.10;1.30;;;24.30;95.00;;;;;;10051941;28;20024;-65
2022/06/24 09:29:48;;;;;;;3.55;1.38;;;24.30;95.10;;;;;;10051832;28;20058;-64
2022/06/24 09:35:00;;;;;;;3.53;1.23;;;24.30;95.00;;;;;;10051550;28;20033;-65
2022/06/24 09:39:51;;;;;;;4.20;1.35;;;24.60;94.60;;;;;;10034414;28;20082;-65
2022/06/24 09:44:45;;;;;;;3.55;1.73;;;24.90;94.40;;;;;;10051500;28;20029;-65
2022/06/24 09:49:36;;;;;;;2.20;1.60;;;25.00;94.10;;;;;;10052211;28;20114;-63
2022/06/24 09:54:27;;;;;;;3.67;1.55;;;25.70;93.90;;;;;;10051090;28;20037;-63
2022/06/24 10:04:28;;;;;;;4.43;1.17;;;26.10;93.50;;;;;;10050355;28;20486;-64
2022/06/24 10:09:24;;;;;;;2.17;1.48;;;26.20;93.20;;;;;;10050150;28;20052;-63
2022/06/24 10:14:14;;;;;;;2.28;1.52;;;26.20;92.90;;;;;;10048142;28;20427;-63
2022/06/24 10:19:06;;;;;;;4.82;1.80;;;26.50;92.70;;;;;;10051025;28;20036;-69
2022/06/24 10:23:57;;;;;;;2.50;1.30;;;26.60;92.40;;;;;;10050301;28;20404;-65
2022/06/24 10:29:00;;;;;;;3.70;1.88;;;26.70;92.20;;;;;;10051013;28;20029;-66
2022/06/24 10:33:56;;;;;;;3.25;1.50;;;26.60;92.10;;;;;;9972140;28;20105;-68
2022/06/24 10:38:47;;;;;;;2.95;2.65;;;26.40;92.30;;;;;;9972581;28;20107;-71
2022/06/24 10:43:43;;;;;;;5.95;1.95;;;26.40;92.30;;;;;;9972303;28;20278;-69
2022/06/24 10:48:51;;;;;;;5.68;2.13;;;26.20;92.10;;;;;;9972786;28;20062;-68
2022/06/24 10:54:06;;;;;;;1.55;1.40;;;25.90;92.00;;;;;;9973671;28;20081;-69
2022/06/24 10:58:57;;;;;;;2.55;1.85;;;26.00;91.90;;;;;;9971810;28;20517;-69
2022/06/24 11:03:51;;;;;;;3.03;1.50;;;26.00;91.90;;;;;;9972371;28;20026;-69
2022/06/24 11:08:42;;;;;;;3.88;2.10;;;26.10;91.90;;;;;;9973360;28;20046;-70
2022/06/24 11:13:42;;;;;;;3.30;1.75;;;26.20;91.80;;;;;;9977031;28;20528;-72
2022/06/24 11:18:34;;;;;;;4.13;1.63;;;26.20;91.80;;;;;;9975241;28;20050;-72
2022/06/24 11:23:30;;;;;;;3.42;1.70;;;26.30;91.80;;;;;;9980571;28;20023;-72
2022/06/24 11:28:28;;;;;;;3.75;1.20;;;26.20;91.80;;;;;;9978602;28;20408;-69
2022/06/24 11:33:19;;;;;;;1.45;1.00;;;26.20;91.70;;;;;;10049677;28;20076;-69
2022/06/24 11:38:10;;;;;;;1.63;1.52;;;26.20;91.80;;;;;;10058900;28;20514;-70
2022/06/24 11:43:12;;;;;;;3.38;1.40;;;26.20;91.90;;;;;;10058424;28;20024;-71
2022/06/24 11:48:05;;;;;;;3.13;1.50;;;26.10;91.70;;;;;;10055436;28;20504;-70
2022/06/24 11:52:57;;;;;;;2.22;1.40;;;26.00;91.80;;;;;;10058538;28;20539;-70
2022/06/24 11:57:53;;;;;;;3.40;1.48;;;26.00;91.90;;;;;;10060689;28;20037;-71
2022/06/24 12:02:44;;;;;;;1.55;1.23;;;25.90;92.00;;;;;;10055425;28;20029;-74
2022/06/24 12:07:35;;;;;;;4.25;1.40;;;26.00;92.10;;;;;;10063240;28;20564;-72
2022/06/24 12:12:26;;;;;;;2.17;1.00;;;26.00;92.20;;;;;;10053950;28;20096;-73
2022/06/24 12:17:17;;;;;;;4.00;1.38;;;26.10;92.40;;;;;;10055463;28;20068;-72
2022/06/24 12:22:11;;;;;;;5.45;1.58;;;26.40;92.30;;;;;;10037378;28;20041;-74
2022/06/24 12:27:04;;;;;;;3.08;2.00;;;26.60;92.40;;;;;;10056617;28;20034;-72
2022/06/24 12:31:54;;;;;;;1.67;1.27;;;26.60;92.40;;;;;;10056626;28;20493;-75
2022/06/24 12:36:45;;;;;;;2.72;1.40;;;26.50;92.50;;;;;;10055261;28;20029;-76
2022/06/24 12:42:05;;;;;;;1.85;1.20;;;26.40;92.60;;;;;;10058136;28;20033;-74
2022/06/24 12:52:35;;;;;;;4.18;1.30;;;26.70;92.30;;;;;;10050123;28;20046;-75
2022/06/24 12:57:27;;;;;;;1.88;1.10;;;27.00;92.30;;;;;;10055894;28;20126;-72
2022/06/24 13:02:18;;;;;;;3.38;1.52;;;27.60;92.10;;;;;;10057801;28;20053;-70
2022/06/24 13:07:08;;;;;;;2.13;1.40;;;27.50;92.10;;;;;;10047972;28;20590;-70
2022/06/24 13:11:59;;;;;;;3.38;1.38;;;27.60;92.10;;;;;;10062485;28;20349;-72
2022/06/24 13:16:50;;;;;;;4.32;1.50;;;27.70;92.40;;;;;;10061352;28;20580;-68
2022/06/24 13:21:40;;;;;;;1.60;1.20;;;27.50;92.10;;;;;;10053545;28;20033;-70
2022/06/24 13:26:31;;;;;;;4.38;1.40;;;27.10;92.60;;;;;;10053442;28;20300;-68
2022/06/24 13:31:22;;;;;;;1.73;1.10;;;26.90;92.70;;;;;;10053069;28;20052;-70
2022/06/24 13:36:13;;;;;;;2.42;1.10;;;26.90;92.90;;;;;;10052610;28;20037;-71
2022/06/24 13:41:04;;;;;;;3.08;1.27;;;26.60;93.10;;;;;;10053466;28;20021;-68
2022/06/24 13:45:54;;;;;;;1.92;0.90;;;26.40;93.30;;;;;;10053044;28;20072;-70
2022/06/24 13:50:46;;;;;;;1.15;0.98;;;26.40;93.30;;;;;;10052781;28;20017;-68
2022/06/24 13:55:36;;;;;;;2.45;1.08;;;26.20;93.40;;;;;;10051032;28;20065;-68
2022/06/24 14:00:27;;;;;;;3.10;1.13;;;26.40;93.40;;;;;;10051213;28;20478;-68
2022/06/24 14:05:18;;;;;;;2.85;1.10;;;26.40;93.40;;;;;;10051069;28;20022;-70
2022/06/24 14:10:08;;;;;;;3.30;1.30;;;26.20;93.60;;;;;;10107257;22;20056;-66
2022/06/24 14:14:59;;;;;;;3.97;1.13;;;26.00;93.70;;;;;;10128140;28;20091;-62
2022/06/24 14:19:50;;;;;;;2.67;1.45;;;25.70;93.90;;;;;;10131925;28;20048;-63
2022/06/24 14:24:40;;;;;;;1.95;1.23;;;25.60;94.00;;;;;;10127274;28;20151;-62
2022/06/24 14:29:32;;;;;;;2.47;1.13;;;25.40;94.00;;;;;;10132380;28;20028;-62
2022/06/24 14:34:23;;;;;;;1.85;1.10;;;25.50;94.00;;;;;;10117037;28;20020;-61
2022/06/24 14:44:23;;;;;;;3.00;1.23;;;26.00;93.70;;;;;;10131286;28;20067;-65
2022/06/24 14:49:14;;;;;;;2.53;1.10;;;25.80;93.90;;;;;;10139301;28;20028;-64
2022/06/24 14:54:04;;;;;;;1.20;1.10;;;25.70;94.10;;;;;;10125405;28;20445;-63
2022/06/24 14:58:55;;;;;;;1.35;1.02;;;25.70;94.00;;;;;;10144612;28;20537;-61
2022/06/24 15:03:46;;;;;;;1.95;1.00;;;25.50;94.00;;;;;;10147048;28;20050;-61
2022/06/24 15:08:36;;;;;;;1.02;0.80;;;25.40;94.10;;;;;;10145417;28;20449;-62
2022/06/24 15:13:27;;;;;;;1.30;1.10;;;25.30;94.00;;;;;;10143730;28;20158;-62
2022/06/24 15:18:18;;;;;;;1.75;1.08;;;25.10;94.10;;;;;;10143858;28;20027;-64
2022/06/24 15:23:09;;;;;;;1.90;1.10;;;25.00;94.20;;;;;;10138487;28;20035;-61
2022/06/24 15:28:00;;;;;;;2.40;1.13;;;24.60;94.30;;;;;;10134022;28;20025;-60
2022/06/24 15:32:51;;;;;;;1.38;0.95;;;24.30;94.60;;;;;;10142045;28;20031;-61
2022/06/24 15:37:42;;;;;;;1.63;0.90;;;23.90;94.90;;;;;;10142125;28;20060;-61
2022/06/24 15:42:32;;;;;;;4.47;1.00;;;23.60;95.20;;;;;;10135814;28;20505;-60
2022/06/24 15:47:23;;;;;;;1.38;1.02;;;23.20;95.50;;;;;;10136437;28;20039;-61
2022/06/24 15:52:14;;;;;;;3.00;1.02;;;22.90;95.80;;;;;;10136344;28;20036;-61
2022/06/24 15:57:05;;;;;;;1.52;1.17;;;22.90;95.90;;;;;;10138436;28;20032;-61
2022/06/24 16:01:55;;;;;;;2.15;1.23;;;22.90;95.90;;;;;;10133349;28;20145;-60
2022/06/24 16:06:46;;;;;;;1.63;1.38;;;22.70;96.30;;;;;;10135436;28;21629;-61
2022/06/24 16:11:37;;;;;;;3.40;1.60;;;22.70;96.40;;;;;;10134098;28;20499;-63
2022/06/24 16:16:28;;;;;;;1.98;1.48;;;22.50;96.70;;;;;;10138513;28;20032;-61
2022/06/24 16:21:19;;;;;;;1.70;1.30;;;22.40;96.80;;;;;;10128524;28;20337;-61
2022/06/24 16:31:24;;;;;;;1.95;1.30;;;22.40;96.90;;;;;;10140003;28;20036;-70
2022/06/24 16:36:15;;;;;;;32.72;17.60;;;22.60;96.90;;;;;;10133653;28;20037;-73
2022/06/24 16:41:06;;;;;;;14.43;11.40;;;22.60;96.90;;;;;;10132485;28;20028;-67
2022/06/24 16:46:00;;;;;;;3.25;1.77;;;22.80;97.10;;;;;;10133214;28;20209;-69
2022/06/24 16:50:52;;;;;;;2.80;1.98;;;22.60;97.00;;;;;;10134312;28;20491;-67
2022/06/24 16:55:42;;;;;;;1.85;1.25;;;22.60;97.30;;;;;;10134418;28;20024;-68
2022/06/24 17:00:34;;;;;;;2.05;1.60;;;22.60;97.10;;;;;;10131993;28;20585;-70
2022/06/24 17:05:25;;;;;;;3.72;2.33;;;22.60;97.20;;;;;;10133035;28;20074;-69
2022/06/24 17:10:16;;;;;;;2.53;1.50;;;22.70;97.10;;;;;;10112081;28;20350;-69
2022/06/24 17:15:07;;;;;;;3.08;1.67;;;22.60;97.30;;;;;;10121511;28;20173;-64
2022/06/24 17:19:58;;;;;;;3.00;1.40;;;22.50;97.40;;;;;;10130378;28;20495;-71
2022/06/24 17:24:49;;;;;;;4.40;1.65;;;22.30;97.60;;;;;;10125688;28;20644;-65
2022/06/24 17:29:40;;;;;;;1.55;1.15;;;22.20;97.70;;;;;;10129899;28;20031;-67
2022/06/24 17:34:30;;;;;;;4.22;2.00;;;22.10;97.70;;;;;;10133921;28;20032;-69
2022/06/24 17:39:21;;;;;;;2.53;1.75;;;22.40;97.60;;;;;;10134183;28;20044;-70
2022/06/24 17:44:12;;;;;;;5.05;1.40;;;22.50;97.40;;;;;;10115156;28;20038;-60
2022/06/24 17:49:03;;;;;;;2.38;1.55;;;22.30;97.60;;;;;;10132428;28;20624;-61
2022/06/24 17:53:54;;;;;;;3.38;1.35;;;22.20;97.70;;;;;;10132129;28;20032;-62
2022/06/24 17:58:45;;;;;;;3.28;1.45;;;22.10;98.00;;;;;;10125049;28;20037;-62
2022/06/24 18:03:35;;;;;;;4.20;1.80;;;22.00;97.90;;;;;;10132557;28;20038;-61
2022/06/24 18:08:26;;;;;;;1.75;1.50;;;22.00;97.90;;;;;;10133144;28;20246;-61
2022/06/24 18:13:17;;;;;;;2.20;1.70;;;21.80;98.00;;;;;;10132795;28;20032;-62
2022/06/24 18:18:07;;;;;;;1.20;1.08;;;22.00;97.90;;;;;;10132123;28;20039;-63
2022/06/24 18:22:58;;;;;;;2.20;1.40;;;22.00;98.00;;;;;;10136124;28;20016;-62
2022/06/24 18:27:49;;;;;;;2.15;1.08;;;21.90;98.10;;;;;;10141976;28;20047;-61
2022/06/24 18:32:40;;;;;;;2.95;1.80;;;21.90;98.10;;;;;;10123112;28;20532;-62
2022/06/24 18:37:31;;;;;;;2.40;1.40;;;22.00;98.00;;;;;;10141413;28;20182;-61
2022/06/24 18:42:22;;;;;;;3.47;1.20;;;22.00;98.00;;;;;;10140940;28;20020;-62
2022/06/24 18:47:13;;;;;;;2.15;1.33;;;22.10;97.90;;;;;;10138956;28;20455;-62
2022/06/24 18:52:05;;;;;;;2.47;1.63;;;22.00;98.00;;;;;;10135030;28;20504;-63
2022/06/24 18:56:56;;;;;;;4.72;1.92;;;22.00;98.10;;;;;;10142149;28;20708;-61
2022/06/24 19:01:47;;;;;;;2.53;1.55;;;21.80;98.20;;;;;;10136722;28;20017;-62
2022/06/24 19:06:37;;;;;;;2.47;1.25;;;21.60;98.30;;;;;;10143699;28;20260;-63
2022/06/24 19:11:28;;;;;;;2.72;1.60;;;21.60;98.30;;;;;;10146066;28;20127;-68
2022/06/24 19:16:18;;;;;;;2.47;1.23;;;21.70;98.20;;;;;;10141549;28;20043;-68
2022/06/24 19:21:09;;;;;;;2.80;1.60;;;21.80;98.00;;;;;;10140438;28;20024;-71
2022/06/24 19:26:00;;;;;;;2.03;1.45;;;21.70;98.00;;;;;;10140005;28;20021;-67
2022/06/24 19:30:51;;;;;;;2.50;1.40;;;21.60;98.20;;;;;;10140737;28;20035;-74
2022/06/24 19:35:42;;;;;;;3.08;1.75;;;21.50;98.20;;;;;;10138856;28;20032;-69
2022/06/24 19:40:34;;;;;;;2.72;2.10;;;21.60;98.20;;;;;;10116807;28;20101;-69
2022/06/24 19:45:25;;;;;;;5.22;3.70;;;21.40;98.20;;;;;;10118215;28;20060;-74
2022/06/24 19:50:15;;;;;;;11.10;6.32;;;21.50;98.20;;;;;;10130660;28;20124;-69
2022/06/24 19:55:07;;;;;;;6.35;3.85;;;21.50;98.10;;;;;;10134971;28;20024;-75
2022/06/24 19:59:57;;;;;;;7.80;3.22;;;21.30;98.30;;;;;;10114815;28;20033;-72
2022/06/24 20:09:58;;;;;;;4.65;1.92;;;21.30;98.50;;;;;;10136403;28;20094;-68
2022/06/24 20:14:49;;;;;;;3.10;1.50;;;21.30;98.50;;;;;;10136262;28;20528;-70
2022/06/24 20:19:40;;;;;;;3.90;1.85;;;21.30;98.50;;;;;;10135858;28;20024;-75
2022/06/24 20:24:38;;;;;;;3.30;2.00;;;21.30;98.50;;;;;;10134629;28;20039;-69
2022/06/24 20:29:29;;;;;;;2.90;1.50;;;21.20;98.70;;;;;;10140895;28;20029;-73
2022/06/24 20:34:20;;;;;;;3.80;1.73;;;21.10;98.80;;;;;;10136712;28;20396;-71
2022/06/24 20:39:12;;;;;;;3.47;2.15;;;21.20;98.80;;;;;;10137421;28;20039;-69
2022/06/24 20:44:03;;;;;;;2.42;1.45;;;21.20;98.80;;;;;;10138949;28;20266;-70
2022/06/24 20:48:54;;;;;;;3.75;1.77;;;21.10;98.90;;;;;;10137361;28;20614;-69
2022/06/24 20:53:45;;;;;;;6.30;1.90;;;21.20;99.00;;;;;;10113358;28;20025;-69
2022/06/24 20:58:35;;;;;;;3.05;1.77;;;21.10;99.00;;;;;;10133104;28;20036;-69
2022/06/24 21:03:26;;;;;;;3.30;1.92;;;21.10;99.10;;;;;;10134151;28;20010;-70
2022/06/24 21:08:16;;;;;;;3.10;1.55;;;20.90;99.30;;;;;;10135678;28;20426;-79
2022/06/24 21:13:11;;;;;;;3.40;2.90;;;20.90;99.40;;;;;;10138280;28;20453;-76
2022/06/24 21:18:02;;;;;;;3.55;2.30;;;20.90;99.40;;;;;;10135799;28;20036;-77
2022/06/24 21:22:55;;;;;;;10.93;4.90;;;21.00;99.40;;;;;;10136260;28;20037;-75
2022/06/24 21:27:45;;;;;;;3.00;2.17;;;21.10;99.50;;;;;;10117848;28;20074;-75
2022/06/24 21:32:36;;;;;;;3.90;2.20;;;21.10;99.60;;;;;;10134740;28;20013;-69
2022/06/24 21:37:27;;;;;;;3.05;2.45;;;21.20;99.40;;;;;;10131338;28;20039;-75
2022/06/24 21:42:18;;;;;;;5.18;2.25;;;21.30;99.50;;;;;;10132592;28;20016;-68
2022/06/24 21:47:09;;;;;;;28.45;18.52;;;21.20;99.30;;;;;;10124648;28;20024;-69
2022/06/24 21:51:59;;;;;;;15.05;9.82;;;21.30;99.30;;;;;;10132135;28;20552;-67
2022/06/24 21:56:51;;;;;;;4.10;2.60;;;21.20;99.40;;;;;;10126635;28;20032;-66
2022/06/24 22:01:42;;;;;;;3.67;2.60;;;21.20;99.40;;;;;;10120567;28;20013;-64
2022/06/24 22:06:33;;;;;;;4.35;2.88;;;21.20;99.60;;;;;;10131420;28;20107;-64
2022/06/24 22:11:24;;;;;;;3.05;2.10;;;21.40;99.30;;;;;;10131650;28;20113;-65
2022/06/24 22:16:15;;;;;;;4.30;2.83;;;21.20;99.40;;;;;;10132700;28;20024;-63
2022/06/24 22:21:06;;;;;;;4.20;2.20;;;21.10;99.40;;;;;;10130693;28;20075;-66
2022/06/24 22:25:57;;;;;;;3.25;1.77;;;21.00;99.60;;;;;;10132279;28;20036;-65
2022/06/24 22:30:48;;;;;;;2.65;2.00;;;20.90;99.50;;;;;;10132390;28;20539;-62
2022/06/24 22:35:39;;;;;;;2.25;1.77;;;20.90;99.50;;;;;;10131357;28;20104;-63
2022/06/24 22:40:30;;;;;;;2.72;2.00;;;20.80;99.60;;;;;;10131813;28;20039;-69
2022/06/24 22:45:20;;;;;;;28.92;12.75;;;20.60;99.70;;;;;;10109791;28;20333;-64
2022/06/24 22:50:12;;;;;;;28.25;16.00;;;20.60;99.60;;;;;;10126354;28;20043;-64
2022/06/24 22:55:03;;;;;;;3.90;3.00;;;20.60;99.50;;;;;;10133338;28;20043;-64
2022/06/24 22:59:53;;;;;;;2.60;2.30;;;20.60;99.80;;;;;;10131608;28;20059;-64
2022/06/24 23:04:44;;;;;;;13.23;2.95;;;20.50;99.50;;;;;;10131117;28;20024;-65
2022/06/24 23:09:35;;;;;;;5.40;2.15;;;20.50;99.50;;;;;;10135190;28;20105;-64
2022/06/24 23:14:26;;;;;;;1.95;1.75;;;20.40;99.60;;;;;;10119875;28;20065;-65
2022/06/24 23:19:16;;;;;;;1.92;1.77;;;20.40;99.60;;;;;;10137977;28;20056;-64
2022/06/24 23:24:07;;;;;;;2.45;1.48;;;20.40;99.60;;;;;;10134213;28;20021;-63
2022/06/24 23:28:58;;;;;;;3.13;1.42;;;20.30;99.60;;;;;;10138553;28;20478;-64
2022/06/24 23:33:49;;;;;;;3.03;2.08;;;20.20;99.70;;;;;;10137661;28;20025;-64
2022/06/24 23:38:40;;;;;;;5.28;1.67;;;20.30;99.60;;;;;;10133875;28;20040;-64
2022/06/24 23:43:30;;;;;;;3.42;2.00;;;20.20;99.50;;;;;;10136492;28;20013;-63
2022/06/24 23:53:30;;;;;;;2.35;1.20;;;20.20;99.60;;;;;;10139980;28;20074;-63
2022/06/24 23:58:21;;;;;;;2.42;1.30;;;20.20;99.50;;;;;;10120288;28;20114;-63
